Time;durP1;ratioP1;P1;durP2;ratioP2;P2;SDS_P1;SDS_P2;PMS_P1;PMS_P2;Temp;Humidity;BMP_temperature;BMP_pressure;BME280_temperature;BME280_humidity;BME280_pressure;Samples;Min_cycle;Max_cycle;Signal;HPM_P1;HPM_P2
2023/12/24 00:00:02;;;;;;;13.50;5.80;;;1.70;99.90;;;;;;6181422;23;20193;-86
2023/12/24 00:02:33;;;;;;;14.10;6.40;;;2.00;99.90;;;;;;6187286;23;20225;-86
2023/12/24 00:05:11;;;;;;;13.67;6.43;;;1.80;99.90;;;;;;6172377;23;20702;-87
2023/12/24 00:07:43;;;;;;;12.57;6.87;;;1.70;99.90;;;;;;6173505;23;20235;-86
2023/12/24 00:10:17;;;;;;;13.93;6.83;;;1.70;99.90;;;;;;6187021;23;20545;-85
2023/12/24 00:12:54;;;;;;;17.87;7.13;;;1.70;99.90;;;;;;6187406;23;20755;-85
2023/12/24 00:15:30;;;;;;;9.83;5.93;;;1.70;99.90;;;;;;6189322;23;20162;-85
2023/12/24 00:18:08;;;;;;;8.87;6.00;;;1.70;99.90;;;;;;6194497;23;20263;-86
2023/12/24 00:20:37;;;;;;;9.93;6.43;;;1.80;99.90;;;;;;6176566;23;20706;-85
2023/12/24 00:23:08;;;;;;;8.70;5.73;;;1.70;99.90;;;;;;6173916;23;20177;-86
2023/12/24 00:26:01;;;;;;;10.67;6.20;;;1.80;99.90;;;;;;6219256;23;20154;-86
2023/12/24 00:28:38;;;;;;;13.03;6.53;;;1.90;99.90;;;;;;6206009;23;20578;-85
2023/12/24 00:31:10;;;;;;;7.97;5.47;;;1.90;99.90;;;;;;6232815;23;20464;-87
2023/12/24 00:33:40;;;;;;;7.63;5.60;;;1.70;99.90;;;;;;6234893;23;20393;-87
2023/12/24 00:36:11;;;;;;;6.27;4.67;;;1.70;99.90;;;;;;6235065;23;20461;-86
2023/12/24 00:38:49;;;;;;;7.63;4.97;;;1.70;99.90;;;;;;6234051;23;20166;-88
2023/12/24 00:41:30;;;;;;;8.83;5.10;;;1.60;99.90;;;;;;6237028;23;20152;-88
2023/12/24 00:44:12;;;;;;;7.57;5.17;;;1.50;99.90;;;;;;6235770;23;20145;-88
2023/12/24 00:46:44;;;;;;;6.17;5.00;;;1.50;99.90;;;;;;6235512;23;20161;-84
2023/12/24 00:49:28;;;;;;;9.30;4.90;;;1.50;99.90;;;;;;6189720;23;20215;-86
2023/12/24 00:52:17;;;;;;;8.27;5.07;;;1.30;99.90;;;;;;6202625;23;20185;-86
2023/12/24 00:54:45;;;;;;;7.00;4.63;;;1.20;99.90;;;;;;6205772;23;20211;-86
2023/12/24 00:57:15;;;;;;;10.83;5.17;;;1.10;99.90;;;;;;6206785;23;20168;-85
2023/12/24 00:59:47;;;;;;;8.93;5.80;;;1.00;99.90;;;;;;6202867;23;20154;-87
2023/12/24 01:02:39;;;;;;;10.37;5.37;;;0.90;99.90;;;;;;6204595;23;20163;-87
2023/12/24 01:05:40;;;;;;;6.43;4.70;;;1.00;99.90;;;;;;6160261;23;20203;-86
2023/12/24 01:08:11;;;;;;;7.00;3.93;;;1.10;99.90;;;;;;6204176;23;20457;-85
2023/12/24 01:10:40;;;;;;;5.73;4.73;;;1.10;99.90;;;;;;6185833;23;20230;-87
2023/12/24 01:13:10;;;;;;;6.67;4.60;;;1.00;99.90;;;;;;6144893;23;20551;-85
2023/12/24 01:15:39;;;;;;;5.00;4.27;;;1.20;99.90;;;;;;6146840;23;20174;-86
2023/12/24 01:18:22;;;;;;;10.13;4.47;;;1.20;99.90;;;;;;6143282;23;20190;-85
2023/12/24 01:20:50;;;;;;;8.80;4.37;;;1.20;99.90;;;;;;6145228;23;20177;-84
2023/12/24 01:23:22;;;;;;;7.03;4.37;;;1.20;99.90;;;;;;6178623;23;20181;-84
2023/12/24 01:26:20;;;;;;;6.40;4.07;;;1.30;99.90;;;;;;6178818;23;20258;-85
2023/12/24 01:28:49;;;;;;;4.17;3.70;;;1.30;99.90;;;;;;6191068;23;20161;-87
2023/12/24 01:31:20;;;;;;;4.27;3.60;;;1.30;99.90;;;;;;6191942;23;20189;-86
2023/12/24 01:33:52;;;;;;;4.23;3.83;;;1.30;99.90;;;;;;6182547;23;20180;-87
2023/12/24 01:36:21;;;;;;;10.97;4.30;;;1.30;99.90;;;;;;6153598;23;20209;-89
2023/12/24 01:38:50;;;;;;;5.93;3.87;;;1.30;99.90;;;;;;6188083;23;20373;-85
2023/12/24 01:41:19;;;;;;;4.87;3.50;;;1.20;99.90;;;;;;6185897;23;20172;-85
2023/12/24 01:44:19;;;;;;;5.97;3.83;;;1.20;99.90;;;;;;6187648;23;20173;-87
2023/12/24 01:46:50;;;;;;;6.63;4.10;;;1.20;99.90;;;;;;6198393;23;20191;-86
2023/12/24 01:49:22;;;;;;;7.33;3.53;;;1.10;99.90;;;;;;6193355;23;20187;-85
2023/12/24 01:51:57;;;;;;;7.47;4.17;;;1.20;99.90;;;;;;6179429;23;20179;-87
2023/12/24 01:54:27;;;;;;;6.00;3.80;;;0.90;99.90;;;;;;6193554;23;20211;-86
2023/12/24 01:57:27;;;;;;;7.20;4.17;;;0.80;99.90;;;;;;6190896;23;20167;-86
2023/12/24 01:59:56;;;;;;;5.70;3.83;;;0.80;99.90;;;;;;6201706;23;20166;-83
2023/12/24 02:02:28;;;;;;;5.37;3.70;;;0.70;99.90;;;;;;6197660;23;20171;-88
2023/12/24 02:05:02;;;;;;;6.50;4.40;;;0.60;99.90;;;;;;6190509;23;20227;-82
2023/12/24 02:07:34;;;;;;;7.03;4.17;;;0.60;99.90;;;;;;6154202;23;20179;-86
2023/12/24 02:10:05;;;;;;;5.50;3.67;;;0.50;99.90;;;;;;6186463;23;20163;-86
2023/12/24 02:12:37;;;;;;;6.20;3.97;;;0.50;99.90;;;;;;6185420;23;20250;-84
2023/12/24 02:15:07;;;;;;;6.13;3.80;;;0.40;99.90;;;;;;6187100;23;20187;-85
2023/12/24 02:17:45;;;;;;;7.23;3.90;;;0.40;99.90;;;;;;6182850;23;20246;-86
2023/12/24 02:20:25;;;;;;;6.67;3.70;;;0.30;99.90;;;;;;6182225;23;20608;-84
2023/12/24 02:23:02;;;;;;;6.70;4.20;;;0.30;99.90;;;;;;6180738;23;20217;-86
2023/12/24 02:25:32;;;;;;;4.87;3.67;;;0.30;99.90;;;;;;6183445;23;20515;-83
2023/12/24 02:28:07;;;;;;;4.83;3.80;;;0.20;99.90;;;;;;6185321;23;20654;-87
2023/12/24 02:30:42;;;;;;;6.53;4.07;;;0.30;99.90;;;;;;6184589;23;20269;-87
2023/12/24 02:33:13;;;;;;;7.30;3.97;;;0.20;99.90;;;;;;6181580;23;20511;-87
2023/12/24 02:36:13;;;;;;;4.70;3.87;;;0.30;99.90;;;;;;6190399;23;20156;-86
2023/12/24 02:39:11;;;;;;;5.77;3.97;;;0.20;99.90;;;;;;6186318;23;20178;-85
2023/12/24 02:41:43;;;;;;;6.50;3.93;;;0.30;99.90;;;;;;6195402;23;20155;-87
2023/12/24 02:44:14;;;;;;;6.17;3.70;;;0.50;99.90;;;;;;6185685;23;20565;-85
2023/12/24 02:46:43;;;;;;;7.40;3.87;;;0.30;99.90;;;;;;6182837;23;20258;-85
2023/12/24 02:49:14;;;;;;;6.63;4.10;;;0.30;99.90;;;;;;6183929;23;20329;-85
2023/12/24 02:52:31;;;;;;;5.37;3.77;;;0.20;99.90;;;;;;6179501;23;20560;-89
2023/12/24 02:55:38;;;;;;;6.23;4.00;;;0.20;99.90;;;;;;6072463;23;20457;-85
2023/12/24 02:58:09;;;;;;;5.40;4.07;;;0.20;99.90;;;;;;6053199;23;20336;-88
2023/12/24 03:00:44;;;;;;;6.87;3.80;;;0.10;99.90;;;;;;6058951;23;20173;-85
2023/12/24 03:03:14;;;;;;;4.77;3.67;;;0.10;99.90;;;;;;6098577;23;20195;-87
2023/12/24 03:05:45;;;;;;;6.70;4.17;;;0.10;99.90;;;;;;6111853;23;20443;-84
2023/12/24 03:08:56;;;;;;;8.07;4.00;;;-0.10;99.90;;;;;;6099717;23;20211;-86
2023/12/24 03:11:33;;;;;;;6.97;4.57;;;-0.10;99.90;;;;;;6042711;23;20293;-86
2023/12/24 03:14:36;;;;;;;7.10;4.70;;;0.00;99.90;;;;;;6082545;23;20208;-86
2023/12/24 03:17:33;;;;;;;10.40;4.80;;;-0.10;99.90;;;;;;6049376;23;20181;-86
2023/12/24 03:20:08;;;;;;;6.20;3.93;;;0.00;99.90;;;;;;6112105;23;20154;-87
2023/12/24 03:22:48;;;;;;;8.30;4.37;;;-0.10;99.90;;;;;;6110714;23;20169;-87
2023/12/24 03:26:00;;;;;;;6.30;4.20;;;0.00;99.90;;;;;;6108064;23;20169;-85
2023/12/24 03:28:29;;;;;;;7.83;4.50;;;0.10;99.90;;;;;;6117012;23;20179;-86
2023/12/24 03:31:00;;;;;;;8.27;4.37;;;-0.20;99.90;;;;;;6184211;23;20163;-85
2023/12/24 03:34:26;;;;;;;8.17;4.13;;;-0.20;99.90;;;;;;6179573;23;20182;-88
2023/12/24 03:37:18;;;;;;;9.53;4.33;;;-0.50;99.90;;;;;;6181395;23;20221;-87
2023/12/24 03:39:51;;;;;;;4.23;3.77;;;-0.40;99.90;;;;;;6189049;23;20186;-84
2023/12/24 03:43:12;;;;;;;7.10;4.17;;;-0.40;99.90;;;;;;6197926;23;20219;-86
2023/12/24 03:45:47;;;;;;;6.93;4.23;;;-0.40;99.90;;;;;;6112024;23;20224;-88
2023/12/24 03:49:14;;;;;;;6.73;4.37;;;-0.50;99.90;;;;;;6187670;23;20167;-86
2023/12/24 03:51:47;;;;;;;9.60;4.63;;;-0.60;99.90;;;;;;6037877;23;20182;-84
2023/12/24 03:54:16;;;;;;;7.87;3.77;;;-0.60;99.90;;;;;;6027265;23;20241;-84
2023/12/24 03:56:45;;;;;;;8.00;3.93;;;-0.50;99.90;;;;;;6066927;23;20648;-85
2023/12/24 03:59:23;;;;;;;10.37;4.37;;;-0.60;99.90;;;;;;6033556;23;20178;-84
2023/12/24 04:01:58;;;;;;;6.70;3.77;;;-0.50;99.90;;;;;;6079304;23;20204;-89
2023/12/24 04:04:32;;;;;;;7.67;4.23;;;-0.50;99.90;;;;;;6074285;23;20502;-86
2023/12/24 04:07:02;;;;;;;10.40;4.90;;;-0.50;99.90;;;;;;6077191;23;20204;-85
2023/12/24 04:09:33;;;;;;;7.63;4.20;;;-0.60;99.90;;;;;;6084341;23;20173;-86
2023/12/24 04:12:30;;;;;;;8.77;4.83;;;-0.50;99.90;;;;;;6069902;23;20185;-86
2023/12/24 04:15:44;;;;;;;6.97;4.17;;;-0.50;99.90;;;;;;6065584;23;20498;-84
2023/12/24 04:18:24;;;;;;;5.83;4.30;;;-0.40;99.90;;;;;;5972812;23;20193;-88
2023/12/24 04:21:33;;;;;;;10.30;4.33;;;-0.40;99.90;;;;;;6060918;23;20189;-84
2023/12/24 04:24:06;;;;;;;7.37;4.50;;;-0.30;99.90;;;;;;5988553;24;20187;-87
2023/12/24 04:26:57;;;;;;;12.47;4.83;;;-0.30;99.90;;;;;;6049922;23;20450;-87
2023/12/24 04:29:25;;;;;;;8.63;4.50;;;-0.40;99.90;;;;;;6144774;23;20183;-86
2023/12/24 04:32:34;;;;;;;9.93;4.77;;;-0.20;99.90;;;;;;6118968;23;20262;-85
2023/12/24 04:35:04;;;;;;;7.80;3.87;;;-0.50;99.90;;;;;;6151458;23;20216;-84
2023/12/24 04:37:44;;;;;;;6.67;4.60;;;-0.30;99.90;;;;;;6147879;23;20184;-87
2023/12/24 04:40:17;;;;;;;7.47;4.10;;;-0.30;99.90;;;;;;6112330;23;20216;-86
2023/12/24 04:43:04;;;;;;;7.57;4.43;;;-0.20;99.90;;;;;;6150592;23;20156;-85
2023/12/24 04:45:39;;;;;;;7.13;4.07;;;-0.20;99.90;;;;;;6150027;23;20670;-86
2023/12/24 04:48:08;;;;;;;5.80;4.20;;;-0.40;99.90;;;;;;6149702;23;20177;-86
2023/12/24 04:50:41;;;;;;;9.20;4.50;;;-0.40;99.90;;;;;;6133497;23;20555;-88
2023/12/24 04:53:17;;;;;;;7.43;4.37;;;-0.40;99.90;;;;;;6140974;23;20272;-88
2023/12/24 04:55:56;;;;;;;6.27;4.00;;;-0.40;99.90;;;;;;6151563;23;20530;-86
2023/12/24 04:58:25;;;;;;;8.43;4.77;;;-0.40;99.90;;;;;;6151204;23;20171;-87
2023/12/24 05:00:54;;;;;;;9.17;4.33;;;-0.30;99.90;;;;;;6154657;23;20167;-85
2023/12/24 05:03:35;;;;;;;5.27;4.17;;;-0.40;99.90;;;;;;6149378;23;20268;-85
2023/12/24 05:06:14;;;;;;;6.60;4.20;;;-0.40;99.90;;;;;;6154657;23;20256;-86
2023/12/24 05:08:45;;;;;;;9.40;4.90;;;-0.40;99.90;;;;;;6147848;23;20557;-85
2023/12/24 05:11:15;;;;;;;9.67;4.47;;;-0.30;99.90;;;;;;6187461;23;20629;-85
2023/12/24 05:13:51;;;;;;;5.93;3.90;;;-0.50;99.90;;;;;;6184858;23;20175;-85
2023/12/24 05:16:24;;;;;;;9.63;4.80;;;-0.50;99.90;;;;;;6186452;23;20488;-87
2023/12/24 05:19:54;;;;;;;8.07;4.97;;;-0.60;99.90;;;;;;6183071;23;20182;-86
2023/12/24 05:22:37;;;;;;;8.87;4.53;;;-0.60;99.90;;;;;;6093615;23;20283;-84
2023/12/24 05:25:31;;;;;;;10.60;4.50;;;-0.60;99.90;;;;;;6142761;23;20688;-86
2023/12/24 05:28:16;;;;;;;9.20;4.60;;;-0.70;99.90;;;;;;6183343;23;20202;-84
2023/12/24 05:30:45;;;;;;;12.67;5.13;;;-0.70;99.90;;;;;;6182744;23;20233;-86
2023/12/24 05:34:15;;;;;;;11.10;5.43;;;-0.70;99.90;;;;;;6146726;23;20186;-84
2023/12/24 05:36:44;;;;;;;8.70;4.70;;;-0.70;99.90;;;;;;6186819;23;20747;-86
2023/12/24 05:39:14;;;;;;;9.00;5.33;;;-0.80;99.90;;;;;;6188166;23;20609;-85
2023/12/24 05:41:45;;;;;;;9.73;4.93;;;-0.70;99.90;;;;;;6193160;23;20263;-85
2023/12/24 05:44:16;;;;;;;11.53;5.43;;;-0.70;99.90;;;;;;6156677;23;20210;-86
2023/12/24 05:46:45;;;;;;;8.13;5.20;;;-0.70;99.90;;;;;;6195714;23;20198;-84
2023/12/24 05:49:14;;;;;;;11.07;5.07;;;-0.70;99.90;;;;;;6186235;23;20174;-86
2023/12/24 05:56:10;;;;;;;11.80;5.60;;;-0.50;99.90;;;;;;6090549;23;20344;-86
2023/12/24 05:59:10;;;;;;;8.60;5.63;;;-0.70;99.90;;;;;;6062394;23;20188;-85
2023/12/24 06:01:44;;;;;;;11.83;5.93;;;-0.60;99.90;;;;;;6097941;23;20174;-84
2023/12/24 06:04:15;;;;;;;10.60;5.67;;;-0.60;99.90;;;;;;6098154;23;20172;-85
2023/12/24 06:06:44;;;;;;;10.00;5.40;;;-0.50;99.90;;;;;;6095987;23;20227;-85
2023/12/24 06:09:15;;;;;;;7.60;5.23;;;-0.50;99.90;;;;;;6098581;23;20187;-85
2023/12/24 06:12:13;;;;;;;11.73;5.57;;;-0.50;99.90;;;;;;6110041;23;20264;-85
2023/12/24 06:14:48;;;;;;;10.83;6.80;;;-0.50;99.90;;;;;;6072547;23;20411;-85
2023/12/24 06:17:19;;;;;;;9.37;5.70;;;-0.40;99.90;;;;;;6099016;23;20204;-83
2023/12/24 06:19:49;;;;;;;9.07;5.40;;;-0.60;99.90;;;;;;6090106;23;20302;-85
2023/12/24 06:22:21;;;;;;;8.93;5.90;;;-0.50;99.90;;;;;;6100133;23;20236;-84
2023/12/24 06:24:51;;;;;;;9.43;5.83;;;-0.40;99.90;;;;;;6100179;23;20181;-84
2023/12/24 06:27:23;;;;;;;9.67;5.30;;;-0.50;99.90;;;;;;6107041;23;20184;-87
2023/12/24 06:29:53;;;;;;;17.47;6.40;;;-0.40;99.90;;;;;;6068879;23;20535;-84
2023/12/24 06:32:35;;;;;;;10.80;6.07;;;-0.30;99.90;;;;;;6163009;23;20225;-87
2023/12/24 06:35:05;;;;;;;8.93;5.17;;;-0.30;99.90;;;;;;6188819;23;20197;-87
2023/12/24 06:37:55;;;;;;;7.30;5.80;;;-0.40;99.90;;;;;;6202030;23;20175;-87
2023/12/24 06:40:47;;;;;;;10.57;5.53;;;-0.10;99.90;;;;;;6177315;23;20236;-87
2023/12/24 06:51:10;;;;;;;9.47;5.87;;;-0.30;99.90;;;;;;6138303;23;20630;-87
2023/12/24 06:54:36;;;;;;;9.20;6.17;;;0.00;99.90;;;;;;6161044;23;20950;-86
2023/12/24 06:57:36;;;;;;;8.93;6.27;;;0.00;99.90;;;;;;6160243;23;20502;-85
2023/12/24 07:00:52;;;;;;;9.70;5.63;;;0.00;99.90;;;;;;6127488;23;20179;-86
2023/12/24 07:03:21;;;;;;;13.23;6.40;;;0.00;99.90;;;;;;6058955;23;20290;-86
2023/12/24 07:06:02;;;;;;;12.07;6.40;;;0.10;99.90;;;;;;6163294;23;20469;-87
2023/12/24 07:12:46;;;;;;;11.93;6.37;;;0.20;99.90;;;;;;6147051;23;20165;-85
2023/12/24 07:15:15;;;;;;;8.83;5.90;;;0.40;99.90;;;;;;6157545;23;20570;-85
2023/12/24 07:17:44;;;;;;;10.20;5.70;;;0.30;99.90;;;;;;6165300;23;20222;-85
2023/12/24 07:20:42;;;;;;;11.07;6.33;;;0.40;99.90;;;;;;6157130;23;20670;-87
2023/12/24 07:23:11;;;;;;;11.43;6.10;;;0.40;99.90;;;;;;6155183;23;20224;-85
2023/12/24 07:26:09;;;;;;;11.83;6.97;;;0.40;99.90;;;;;;6152122;23;20325;-86
2023/12/24 07:29:12;;;;;;;10.43;6.20;;;0.20;99.90;;;;;;6213207;23;20185;-84
2023/12/24 07:36:32;;;;;;;10.03;6.37;;;0.40;99.90;;;;;;6093026;23;20221;-83
2023/12/24 07:39:58;;;;;;;17.60;6.50;;;0.50;99.90;;;;;;5980630;24;20822;-85
2023/12/24 07:42:41;;;;;;;13.13;7.20;;;0.50;99.90;;;;;;5979206;24;20179;-86
2023/12/24 07:45:16;;;;;;;12.83;7.27;;;0.70;99.90;;;;;;5974430;24;20184;-85
2023/12/24 07:48:13;;;;;;;18.13;7.80;;;0.60;99.90;;;;;;6043454;23;20452;-85
2023/12/24 07:51:06;;;;;;;14.57;7.40;;;0.60;99.90;;;;;;6063123;23;20195;-87
2023/12/24 07:53:34;;;;;;;15.97;8.77;;;0.70;99.90;;;;;;6057535;23;20193;-88
2023/12/24 07:56:21;;;;;;;13.73;8.70;;;0.80;99.90;;;;;;6041927;23;20276;-85
2023/12/24 07:59:18;;;;;;;11.63;7.57;;;0.80;99.90;;;;;;6064492;23;20414;-86
2023/12/24 08:05:14;;;;;;;13.37;7.20;;;0.80;99.90;;;;;;6043115;23;20225;-86
2023/12/24 08:07:43;;;;;;;10.10;7.60;;;1.00;99.90;;;;;;6067814;23;20184;-85
2023/12/24 08:10:15;;;;;;;10.77;7.27;;;1.00;99.90;;;;;;6063628;23;20179;-87
2023/12/24 08:12:44;;;;;;;16.43;8.20;;;1.10;99.90;;;;;;6090017;23;20287;-86
2023/12/24 08:15:17;;;;;;;11.47;7.40;;;1.20;99.90;;;;;;6187618;23;20156;-85
2023/12/24 08:17:46;;;;;;;13.07;8.10;;;1.20;99.90;;;;;;6187475;23;20177;-87
2023/12/24 08:20:20;;;;;;;14.43;8.43;;;1.20;99.90;;;;;;6187966;23;20179;-85
2023/12/24 08:22:50;;;;;;;11.80;7.90;;;1.30;99.90;;;;;;6182584;23;20230;-87
2023/12/24 08:25:21;;;;;;;12.47;8.10;;;1.40;99.90;;;;;;6181711;23;20216;-86
2023/12/24 08:27:49;;;;;;;13.87;7.80;;;1.40;99.90;;;;;;6148899;23;20178;-85
2023/12/24 08:30:18;;;;;;;14.17;8.87;;;1.50;99.90;;;;;;6152043;23;20177;-84
2023/12/24 08:32:48;;;;;;;13.90;9.13;;;1.50;99.90;;;;;;6187833;23;20171;-84
2023/12/24 08:35:23;;;;;;;15.70;8.90;;;1.60;99.90;;;;;;6182971;23;20239;-87
2023/12/24 08:37:52;;;;;;;12.50;8.23;;;1.60;99.90;;;;;;6183513;23;20162;-85
2023/12/24 08:40:27;;;;;;;15.43;8.23;;;1.70;99.90;;;;;;6184805;23;20186;-87
2023/12/24 08:42:56;;;;;;;11.50;8.17;;;1.80;99.90;;;;;;6184556;23;20231;-86
2023/12/24 08:45:25;;;;;;;14.77;7.93;;;1.80;99.90;;;;;;6183971;23;20215;-85
2023/12/24 08:47:53;;;;;;;14.67;8.97;;;1.90;99.90;;;;;;6148979;23;20703;-87
2023/12/24 08:50:24;;;;;;;11.77;8.27;;;1.90;99.90;;;;;;6151144;23;20216;-85
2023/12/24 08:52:55;;;;;;;14.53;8.77;;;1.90;99.90;;;;;;6150969;23;20737;-85
2023/12/24 08:55:24;;;;;;;11.83;8.90;;;1.90;99.90;;;;;;6187881;23;20171;-86
2023/12/24 08:57:54;;;;;;;12.70;8.67;;;1.90;99.90;;;;;;6183698;23;20257;-87
2023/12/24 09:00:23;;;;;;;11.50;8.50;;;2.00;99.90;;;;;;6187776;23;20656;-85
2023/12/24 09:02:52;;;;;;;14.03;9.40;;;2.00;99.90;;;;;;6185116;23;20179;-87
2023/12/24 09:05:22;;;;;;;12.20;8.17;;;2.10;99.90;;;;;;6186287;23;20218;-85
2023/12/24 09:07:51;;;;;;;13.70;9.23;;;2.10;99.90;;;;;;6185475;23;20185;-87
2023/12/24 09:10:20;;;;;;;15.23;10.17;;;2.10;99.90;;;;;;6152095;23;20462;-86
2023/12/24 09:12:49;;;;;;;15.43;10.03;;;2.20;99.90;;;;;;6203366;23;20177;-85
2023/12/24 09:15:19;;;;;;;19.97;10.53;;;2.10;99.90;;;;;;6204231;23;20421;-87
2023/12/24 09:17:47;;;;;;;18.10;11.10;;;2.10;99.90;;;;;;6201253;23;20175;-85
2023/12/24 09:20:17;;;;;;;16.00;10.90;;;2.20;99.90;;;;;;6203287;23;20170;-86
2023/12/24 09:26:22;;;;;;;16.07;10.00;;;2.30;99.90;;;;;;6133529;23;20189;-88
2023/12/24 09:28:51;;;;;;;17.70;10.67;;;2.30;99.90;;;;;;6203868;23;20165;-88
2023/12/24 09:31:24;;;;;;;14.73;10.23;;;2.40;99.90;;;;;;6204141;23;20178;-87
2023/12/24 09:33:55;;;;;;;14.33;10.63;;;2.30;99.90;;;;;;6199971;23;20491;-85
2023/12/24 09:36:28;;;;;;;16.57;10.33;;;2.60;99.90;;;;;;6204415;23;20257;-85
2023/12/24 09:38:57;;;;;;;18.97;10.20;;;2.60;99.90;;;;;;6202653;23;20253;-87
2023/12/24 09:41:27;;;;;;;16.80;9.93;;;2.70;99.90;;;;;;6203437;23;20166;-87
2023/12/24 09:43:56;;;;;;;14.57;10.20;;;2.70;99.90;;;;;;6203966;23;20767;-87
2023/12/24 09:46:25;;;;;;;12.43;9.70;;;2.70;99.90;;;;;;6206284;23;20192;-86
2023/12/24 09:49:09;;;;;;;13.43;9.87;;;2.70;99.90;;;;;;6202896;23;20182;-86
2023/12/24 09:51:40;;;;;;;18.80;12.20;;;2.60;99.90;;;;;;6204562;23;20163;-84
2023/12/24 09:54:09;;;;;;;19.07;11.60;;;2.70;99.90;;;;;;6205031;23;20147;-84
2023/12/24 09:56:40;;;;;;;20.37;12.73;;;2.60;99.90;;;;;;6170049;23;20194;-86
2023/12/24 09:59:09;;;;;;;19.67;12.37;;;2.60;99.90;;;;;;6166469;23;20178;-88
2023/12/24 10:01:45;;;;;;;20.83;11.63;;;2.70;99.90;;;;;;6207030;23;20219;-87
2023/12/24 10:04:15;;;;;;;16.03;10.63;;;2.60;99.90;;;;;;6204899;23;20198;-89
2023/12/24 10:06:54;;;;;;;18.90;11.90;;;2.70;99.90;;;;;;6206453;23;20177;-85
2023/12/24 10:09:25;;;;;;;15.30;11.33;;;2.70;99.90;;;;;;6197381;23;20174;-85
2023/12/24 10:12:05;;;;;;;15.80;11.00;;;2.80;99.90;;;;;;6194918;23;20238;-88
2023/12/24 10:14:34;;;;;;;17.50;11.07;;;2.80;99.90;;;;;;6161016;23;20467;-86
2023/12/24 10:17:03;;;;;;;17.33;10.73;;;2.80;99.90;;;;;;6197803;23;20199;-86
2023/12/24 10:19:34;;;;;;;17.10;10.57;;;2.80;99.90;;;;;;6194145;23;20361;-84
2023/12/24 10:22:05;;;;;;;19.30;11.00;;;3.00;99.90;;;;;;6197894;23;20186;-84
2023/12/24 10:24:37;;;;;;;14.83;10.27;;;3.00;99.90;;;;;;6196666;23;20159;-86
2023/12/24 10:27:10;;;;;;;16.00;10.23;;;3.00;99.90;;;;;;6199301;23;20171;-86
2023/12/24 10:29:41;;;;;;;17.73;11.50;;;3.10;99.90;;;;;;6161174;23;20185;-86
2023/12/24 10:32:11;;;;;;;15.80;10.93;;;3.10;99.90;;;;;;6197119;23;20696;-86
2023/12/24 10:34:40;;;;;;;20.97;10.50;;;3.20;99.90;;;;;;6195608;23;20171;-85
2023/12/24 10:37:21;;;;;;;18.33;10.67;;;3.20;99.90;;;;;;6194999;23;20179;-84
2023/12/24 10:39:51;;;;;;;19.00;10.93;;;3.20;99.90;;;;;;6197792;23;20159;-87
2023/12/24 10:42:21;;;;;;;16.37;10.00;;;3.10;99.90;;;;;;6170808;23;20174;-86
2023/12/24 10:44:50;;;;;;;17.00;10.43;;;3.20;99.90;;;;;;6152700;23;20198;-86
2023/12/24 10:47:19;;;;;;;16.77;10.00;;;3.10;99.90;;;;;;6169500;23;20182;-87
2023/12/24 10:49:48;;;;;;;19.07;11.23;;;3.10;99.90;;;;;;6173920;23;20226;-83
2023/12/24 10:52:19;;;;;;;17.50;10.60;;;3.20;99.90;;;;;;6158120;23;20242;-84
2023/12/24 10:54:48;;;;;;;17.80;10.70;;;3.10;99.90;;;;;;6150151;23;20179;-87
2023/12/24 10:57:35;;;;;;;16.93;10.80;;;3.20;99.90;;;;;;6149891;23;20274;-86
2023/12/24 11:00:09;;;;;;;17.07;10.20;;;3.10;99.90;;;;;;6149390;23;20250;-85
2023/12/24 11:02:39;;;;;;;18.63;10.67;;;3.20;99.90;;;;;;6153762;23;20186;-85
2023/12/24 11:05:09;;;;;;;13.33;9.40;;;3.10;99.90;;;;;;6119536;23;20183;-85
2023/12/24 11:07:51;;;;;;;17.67;10.40;;;3.20;99.90;;;;;;6160283;23;20198;-87
2023/12/24 11:10:53;;;;;;;14.77;10.60;;;3.30;99.90;;;;;;6159202;23;20419;-87
2023/12/24 11:13:47;;;;;;;15.73;10.43;;;3.10;99.90;;;;;;6118147;23;20214;-87
2023/12/24 11:16:40;;;;;;;16.13;10.13;;;3.20;99.90;;;;;;6150633;23;20187;-85
2023/12/24 11:19:25;;;;;;;15.70;9.67;;;3.10;99.90;;;;;;6159377;23;20164;-85
2023/12/24 11:22:09;;;;;;;16.87;10.87;;;3.20;99.90;;;;;;6160890;23;20167;-86
2023/12/24 11:24:42;;;;;;;15.00;10.00;;;3.20;99.90;;;;;;6156985;23;20371;-88
2023/12/24 11:27:14;;;;;;;17.57;9.63;;;3.20;99.90;;;;;;6154972;23;20171;-85
2023/12/24 11:29:47;;;;;;;14.77;10.60;;;3.20;99.90;;;;;;6161783;23;20171;-83
2023/12/24 11:32:36;;;;;;;16.73;11.30;;;3.50;99.90;;;;;;6163258;23;20290;-85
2023/12/24 11:35:06;;;;;;;15.80;11.00;;;3.20;99.90;;;;;;6153023;23;20183;-83
2023/12/24 11:37:39;;;;;;;15.47;9.20;;;3.20;99.90;;;;;;6126789;23;20203;-85
2023/12/24 11:40:12;;;;;;;14.07;8.77;;;3.20;99.90;;;;;;6166327;23;20265;-86
2023/12/24 11:42:43;;;;;;;16.43;9.40;;;3.00;99.90;;;;;;6189711;23;20302;-88
2023/12/24 11:45:21;;;;;;;12.47;8.57;;;3.10;99.90;;;;;;6192848;23;20180;-85
2023/12/24 11:47:54;;;;;;;11.53;8.37;;;3.20;99.90;;;;;;6197007;23;20225;-86
2023/12/24 11:50:26;;;;;;;13.97;9.50;;;3.20;99.90;;;;;;6198422;23;20364;-85
2023/12/24 11:52:57;;;;;;;13.43;9.30;;;3.20;99.90;;;;;;6198651;23;20411;-87
2023/12/24 11:55:26;;;;;;;13.37;8.50;;;3.20;99.90;;;;;;6203918;23;20167;-84
2023/12/24 11:57:56;;;;;;;11.80;8.13;;;3.20;99.90;;;;;;6202663;23;20270;-84
2023/12/24 12:00:27;;;;;;;13.67;8.57;;;3.40;99.90;;;;;;6163208;23;20179;-85
2023/12/24 12:02:58;;;;;;;13.63;7.93;;;3.20;99.90;;;;;;6204579;23;20388;-85
2023/12/24 12:05:30;;;;;;;11.37;8.17;;;3.10;99.90;;;;;;6189954;23;20266;-86
2023/12/24 12:07:59;;;;;;;12.33;8.93;;;3.10;99.90;;;;;;6185934;23;20231;-87
2023/12/24 12:10:30;;;;;;;12.07;8.33;;;3.20;99.90;;;;;;6195606;23;20175;-86
2023/12/24 12:13:02;;;;;;;12.83;8.67;;;3.10;99.90;;;;;;6193031;23;20186;-86
2023/12/24 12:15:33;;;;;;;10.50;7.50;;;3.20;99.90;;;;;;6190445;23;20175;-85
2023/12/24 12:18:03;;;;;;;9.83;7.30;;;3.50;99.90;;;;;;6179664;23;20203;-87
2023/12/24 12:20:32;;;;;;;10.10;7.40;;;3.30;99.90;;;;;;6150819;23;20238;-85
2023/12/24 12:23:01;;;;;;;10.23;7.13;;;3.40;99.90;;;;;;6153417;23;20441;-87
2023/12/24 12:25:30;;;;;;;9.53;6.80;;;3.30;99.90;;;;;;6183678;23;20406;-85
2023/12/24 12:27:59;;;;;;;8.27;6.17;;;3.30;99.90;;;;;;6191300;23;20163;-87
2023/12/24 12:30:27;;;;;;;12.47;7.10;;;3.20;99.90;;;;;;6182389;23;20626;-87
2023/12/24 12:32:58;;;;;;;10.50;6.23;;;3.10;99.90;;;;;;6141459;23;20281;-87
2023/12/24 12:35:27;;;;;;;7.93;6.30;;;3.30;99.90;;;;;;6185212;23;20180;-84
2023/12/24 12:37:56;;;;;;;9.00;6.27;;;3.20;99.90;;;;;;6180847;23;20186;-84
2023/12/24 12:40:25;;;;;;;8.40;5.43;;;3.20;99.90;;;;;;6189427;23;20187;-87
2023/12/24 12:43:08;;;;;;;7.97;5.57;;;3.20;99.90;;;;;;6192370;23;20163;-86
2023/12/24 12:45:37;;;;;;;9.50;6.43;;;3.10;99.90;;;;;;6147224;23;20181;-86
2023/12/24 12:48:08;;;;;;;7.53;5.47;;;3.00;99.90;;;;;;6147371;23;20356;-87
2023/12/24 12:50:37;;;;;;;9.57;6.40;;;2.90;99.90;;;;;;6191055;23;20174;-87
2023/12/24 12:53:06;;;;;;;8.80;6.43;;;3.00;99.90;;;;;;6189840;23;20820;-88
2023/12/24 12:55:36;;;;;;;8.73;5.67;;;2.90;99.90;;;;;;6181336;23;20444;-87
2023/12/24 12:58:13;;;;;;;8.53;6.33;;;2.90;99.90;;;;;;6179158;23;20341;-87
2023/12/24 13:00:41;;;;;;;9.03;6.53;;;2.80;99.90;;;;;;6178727;23;20384;-85
2023/12/24 13:03:15;;;;;;;9.50;6.87;;;2.80;99.90;;;;;;6178653;23;20243;-86
2023/12/24 13:05:43;;;;;;;10.07;7.07;;;2.80;99.90;;;;;;6154183;23;20212;-86
2023/12/24 13:08:17;;;;;;;10.37;7.23;;;2.80;99.90;;;;;;6180321;23;20546;-87
2023/12/24 13:10:46;;;;;;;10.97;7.07;;;2.80;99.90;;;;;;6181189;23;20171;-86
2023/12/24 13:13:19;;;;;;;10.53;7.50;;;2.70;99.90;;;;;;6180582;23;20201;-86
2023/12/24 13:15:49;;;;;;;11.70;8.07;;;2.70;99.90;;;;;;6168929;23;20488;-87
2023/12/24 13:18:26;;;;;;;12.03;7.83;;;2.60;99.90;;;;;;6187643;23;20218;-85
2023/12/24 13:20:56;;;;;;;11.67;7.93;;;2.60;99.90;;;;;;6199127;23;20163;-89
2023/12/24 13:23:27;;;;;;;10.40;6.33;;;2.60;99.90;;;;;;6152030;23;20182;-88
2023/12/24 13:25:55;;;;;;;10.83;7.47;;;2.60;99.90;;;;;;6200091;23;20140;-84
2023/12/24 13:28:25;;;;;;;9.37;6.83;;;2.50;99.90;;;;;;6199123;23;20227;-85
2023/12/24 13:30:54;;;;;;;7.97;6.30;;;2.60;99.90;;;;;;6202559;23;20231;-84
2023/12/24 13:33:25;;;;;;;9.67;6.83;;;2.50;99.90;;;;;;6200945;23;20206;-86
2023/12/24 13:35:54;;;;;;;10.30;6.83;;;2.50;99.90;;;;;;6203794;23;20432;-87
2023/12/24 13:38:27;;;;;;;11.03;6.50;;;2.50;99.90;;;;;;6181415;23;20269;-86
2023/12/24 13:40:58;;;;;;;9.17;6.60;;;2.50;99.90;;;;;;6181184;23;20203;-86
2023/12/24 13:43:27;;;;;;;10.20;6.50;;;2.40;99.90;;;;;;6180474;23;20185;-85
2023/12/24 13:45:56;;;;;;;10.77;6.83;;;2.50;99.90;;;;;;6179231;23;20182;-84
2023/12/24 13:48:27;;;;;;;10.90;6.97;;;2.40;99.90;;;;;;6164298;23;20590;-86
2023/12/24 13:50:56;;;;;;;10.47;7.07;;;2.30;99.90;;;;;;6166545;23;20205;-85
2023/12/24 13:53:26;;;;;;;10.93;6.97;;;2.40;99.90;;;;;;6165457;23;20389;-86
2023/12/24 13:56:00;;;;;;;11.40;6.60;;;2.20;99.90;;;;;;6201079;23;20181;-85
2023/12/24 13:58:32;;;;;;;9.67;5.83;;;2.20;99.90;;;;;;6201842;23;20241;-86
2023/12/24 14:01:02;;;;;;;6.77;5.67;;;2.20;99.90;;;;;;6180925;23;20162;-85
2023/12/24 14:03:33;;;;;;;9.60;6.17;;;2.20;99.90;;;;;;6179031;23;20495;-86